createdAt,value
2018-09-26T00:00:40.152Z,2.17
2018-09-26T00:05:16.153Z,2.08
2018-09-26T00:07:45.362Z,1.85
2018-09-26T00:10:15.066Z,2.42
2018-09-26T00:12:43.492Z,2.37
2018-09-26T00:15:12.041Z,2.30
2018-09-26T00:17:40.403Z,2.00
2018-09-26T00:20:10.029Z,1.90
2018-09-26T00:22:38.405Z,1.80
2018-09-26T00:25:06.974Z,2.20
2018-09-26T00:27:35.456Z,2.45
2018-09-26T00:30:04.543Z,2.30
2018-09-26T00:32:33.042Z,2.40
2018-09-26T00:35:01.456Z,2.15
2018-09-26T00:37:29.899Z,2.27
2018-09-26T00:39:58.278Z,2.12
2018-09-26T00:42:26.706Z,2.83
2018-09-26T00:44:55.113Z,2.35
2018-09-26T00:47:23.537Z,2.33
2018-09-26T00:49:51.915Z,2.40
2018-09-26T00:52:20.337Z,1.80
2018-09-26T00:54:48.791Z,2.87
2018-09-26T00:57:17.534Z,1.98
2018-09-26T00:59:45.904Z,2.12
2018-09-26T01:02:14.323Z,2.30
2018-09-26T01:04:42.729Z,1.85
2018-09-26T01:07:11.137Z,2.42
2018-09-26T01:09:39.572Z,2.00
2018-09-26T01:12:07.972Z,2.45
2018-09-26T01:14:36.961Z,1.90
2018-09-26T01:17:05.403Z,2.45
2018-09-26T01:19:33.740Z,2.45
2018-09-26T01:22:02.143Z,2.20
2018-09-26T01:24:30.809Z,2.05
2018-09-26T01:27:00.045Z,2.40
2018-09-26T01:29:28.414Z,2.52
2018-09-26T01:31:56.822Z,2.37
2018-09-26T01:34:25.489Z,2.55
2018-09-26T01:36:54.020Z,2.52
2018-09-26T01:39:22.444Z,2.40
2018-09-26T01:41:50.887Z,2.35
2018-09-26T01:44:20.014Z,2.10
2018-09-26T01:46:49.068Z,2.45
2018-09-26T01:49:17.585Z,2.22
2018-09-26T01:51:46.073Z,2.25
2018-09-26T01:54:14.568Z,2.80
2018-09-26T01:56:42.981Z,2.37
2018-09-26T01:59:11.383Z,2.87
2018-09-26T02:01:39.949Z,2.72
2018-09-26T02:04:08.431Z,2.58
2018-09-26T02:06:36.802Z,2.90
2018-09-26T02:09:08.281Z,2.20
2018-09-26T02:11:36.843Z,2.98
2018-09-26T02:14:05.377Z,2.22
2018-09-26T02:16:33.830Z,3.40
2018-09-26T02:19:02.346Z,3.85
2018-09-26T02:21:31.343Z,3.05
2018-09-26T02:23:59.751Z,2.62
2018-09-26T02:26:28.168Z,2.75
2018-09-26T02:28:56.577Z,2.50
2018-09-26T02:31:25.040Z,2.20
2018-09-26T02:33:53.400Z,2.65
2018-09-26T02:36:21.812Z,2.50
2018-09-26T02:38:50.190Z,2.98
2018-09-26T02:41:18.632Z,2.70
2018-09-26T02:43:47.156Z,2.55
2018-09-26T02:46:15.548Z,2.37
2018-09-26T02:48:49.460Z,2.02
2018-09-26T02:51:18.008Z,2.60
2018-09-26T02:53:46.634Z,2.60
2018-09-26T02:56:15.028Z,2.70
2018-09-26T02:58:43.479Z,2.58
2018-09-26T03:01:11.912Z,2.52
2018-09-26T03:03:40.427Z,2.85
2018-09-26T03:06:09.364Z,2.60
2018-09-26T03:08:37.762Z,2.90
2018-09-26T03:11:06.157Z,2.60
2018-09-26T03:13:34.611Z,2.77
2018-09-26T03:16:02.990Z,1.98
2018-09-26T03:18:31.506Z,3.77
2018-09-26T03:21:00.458Z,2.45
2018-09-26T03:23:29.379Z,2.30
2018-09-26T03:25:57.876Z,2.40
2018-09-26T03:28:26.246Z,2.87
2018-09-26T03:30:54.726Z,2.62
2018-09-26T03:33:23.286Z,2.50
2018-09-26T03:35:51.734Z,2.33
2018-09-26T03:38:20.733Z,2.45
2018-09-26T03:40:49.151Z,2.87
2018-09-26T03:43:17.601Z,2.90
2018-09-26T03:45:46.081Z,2.60
2018-09-26T03:48:14.549Z,2.30
2018-09-26T03:50:42.920Z,2.85
2018-09-26T03:53:11.368Z,3.02
2018-09-26T03:55:39.783Z,2.40
2018-09-26T03:58:08.846Z,3.27
2018-09-26T04:00:37.547Z,3.22
2018-09-26T04:03:06.014Z,2.50
2018-09-26T04:05:34.387Z,2.60
2018-09-26T04:08:02.874Z,2.45
2018-09-26T04:10:31.249Z,2.42
2018-09-26T04:12:59.826Z,2.30
2018-09-26T04:15:28.189Z,3.15
2018-09-26T04:17:56.607Z,2.08
2018-09-26T04:20:25.728Z,2.33
2018-09-26T04:22:54.067Z,2.42
2018-09-26T04:25:22.553Z,2.35
2018-09-26T04:27:51.098Z,2.47
2018-09-26T04:30:19.575Z,2.95
2018-09-26T04:32:48.045Z,2.02
2018-09-26T04:35:16.350Z,2.22
2018-09-26T04:37:44.849Z,2.10
2018-09-26T04:40:13.251Z,2.10
2018-09-26T04:42:41.650Z,2.20
2018-09-26T04:45:10.717Z,2.40
2018-09-26T04:47:39.209Z,2.27
2018-09-26T04:50:08.169Z,1.60
2018-09-26T04:52:36.529Z,2.02
2018-09-26T04:55:04.983Z,1.98
2018-09-26T04:57:33.358Z,2.05
2018-09-26T05:00:01.798Z,2.58
2018-09-26T05:02:30.214Z,2.10
2018-09-26T05:04:58.858Z,2.10
2018-09-26T05:07:27.292Z,2.47
2018-09-26T05:09:55.660Z,2.05
2018-09-26T05:12:24.047Z,2.55
2018-09-26T05:14:52.511Z,3.00
2018-09-26T05:17:21.433Z,2.92
2018-09-26T05:19:49.792Z,2.15
2018-09-26T05:22:18.141Z,2.92
2018-09-26T05:24:46.538Z,3.00
2018-09-26T05:27:15.014Z,2.20
2018-09-26T05:29:43.464Z,2.70
2018-09-26T05:32:11.879Z,2.72
2018-09-26T05:34:40.805Z,2.92
2018-09-26T05:37:09.298Z,2.77
2018-09-26T05:39:37.687Z,2.95
2018-09-26T05:42:06.091Z,2.95
2018-09-26T05:44:34.576Z,3.10
2018-09-26T05:47:02.990Z,3.50
2018-09-26T05:49:31.402Z,3.90
2018-09-26T05:51:59.807Z,3.90
2018-09-26T05:54:28.220Z,5.55
2018-09-26T05:56:56.615Z,5.53
2018-09-26T05:59:25.049Z,6.62
2018-09-26T06:01:53.515Z,5.05
2018-09-26T06:04:21.941Z,4.62
2018-09-26T06:06:50.386Z,4.10
2018-09-26T06:09:18.735Z,3.40
2018-09-26T06:11:47.229Z,2.90
2018-09-26T06:14:15.656Z,2.77
2018-09-26T06:16:44.070Z,3.20
2018-09-26T06:19:12.515Z,3.75
2018-09-26T06:21:40.918Z,3.40
2018-09-26T06:24:09.463Z,4.08
2018-09-26T06:26:37.919Z,3.60
2018-09-26T06:29:06.540Z,3.80
2018-09-26T06:31:35.237Z,3.65
2018-09-26T06:34:03.742Z,3.47
2018-09-26T06:36:32.096Z,3.05
2018-09-26T06:39:01.212Z,3.90
2018-09-26T06:41:29.586Z,2.98
2018-09-26T06:43:57.974Z,3.30
2018-09-26T06:46:26.363Z,3.65
2018-09-26T06:48:54.854Z,2.90
2018-09-26T06:51:23.263Z,3.27
2018-09-26T06:53:51.866Z,3.70
2018-09-26T06:56:20.261Z,4.53
2018-09-26T06:58:48.667Z,3.52
2018-09-26T07:01:17.123Z,3.00
2018-09-26T07:03:46.172Z,3.75
2018-09-26T07:06:14.605Z,3.33
2018-09-26T07:08:43.743Z,4.28
2018-09-26T07:11:12.387Z,4.35
2018-09-26T07:13:40.751Z,4.50
2018-09-26T07:16:09.154Z,3.75
2018-09-26T07:18:37.764Z,4.50
2018-09-26T07:21:06.278Z,4.35
2018-09-26T07:23:34.703Z,4.47
2018-09-26T07:26:03.103Z,5.62
2018-09-26T07:28:31.522Z,5.37
2018-09-26T07:31:00.058Z,5.20
2018-09-26T07:33:28.573Z,5.35
2018-09-26T07:35:56.988Z,5.05
2018-09-26T07:38:25.438Z,4.30
2018-09-26T07:40:54.031Z,4.70
2018-09-26T07:43:22.514Z,4.90
2018-09-26T07:45:51.000Z,5.12
2018-09-26T07:48:19.364Z,4.20
2018-09-26T07:50:47.790Z,4.40
2018-09-26T07:53:16.220Z,4.42
2018-09-26T07:55:44.734Z,3.85
2018-09-26T07:58:13.889Z,4.28
2018-09-26T08:00:42.324Z,3.72
2018-09-26T08:03:10.821Z,3.62
2018-09-26T08:05:39.336Z,3.50
2018-09-26T08:08:08.622Z,4.30
2018-09-26T08:10:37.145Z,4.40
2018-09-26T08:13:06.507Z,3.83
2018-09-26T08:15:34.986Z,4.13
2018-09-26T08:18:03.505Z,3.90
2018-09-26T08:20:31.818Z,3.50
2018-09-26T08:23:00.251Z,4.30
2018-09-26T08:25:28.675Z,4.30
2018-09-26T08:27:57.114Z,4.00
2018-09-26T08:30:25.517Z,4.10
2018-09-26T08:32:54.007Z,3.87
2018-09-26T08:35:23.210Z,4.20
2018-09-26T08:37:51.731Z,3.70
2018-09-26T08:40:20.214Z,3.80
2018-09-26T08:42:48.650Z,4.43
2018-09-26T08:45:17.165Z,4.03
2018-09-26T08:47:45.611Z,3.80
2018-09-26T08:50:14.000Z,3.87
2018-09-26T08:52:42.448Z,4.57
2018-09-26T08:55:10.888Z,3.63
2018-09-26T08:57:39.318Z,4.23
2018-09-26T09:00:08.285Z,5.10
2018-09-26T09:02:37.459Z,4.73
2018-09-26T09:05:06.020Z,5.10
2018-09-26T09:07:34.383Z,4.57
2018-09-26T09:10:02.900Z,5.10
2018-09-26T09:12:31.250Z,4.80
2018-09-26T09:14:59.645Z,4.30
2018-09-26T09:17:28.248Z,4.00
2018-09-26T09:19:56.753Z,4.43
2018-09-26T09:22:25.229Z,4.20
2018-09-26T09:24:53.663Z,3.70
2018-09-26T09:27:22.186Z,4.10
2018-09-26T09:29:50.534Z,4.70
2018-09-26T09:32:18.963Z,4.27
2018-09-26T09:34:47.297Z,4.60
2018-09-26T09:37:15.746Z,3.60
2018-09-26T09:39:44.371Z,5.00
2018-09-26T09:42:13.690Z,4.07
2018-09-26T09:44:42.931Z,3.53
2018-09-26T09:47:11.480Z,3.50
2018-09-26T09:49:40.557Z,4.00
2018-09-26T09:52:08.984Z,3.97
2018-09-26T09:54:37.478Z,3.90
2018-09-26T09:57:05.962Z,3.63
2018-09-26T09:59:34.371Z,4.83
2018-09-26T10:02:03.472Z,4.40
2018-09-26T10:04:31.998Z,4.20
2018-09-26T10:07:00.609Z,3.83
2018-09-26T10:09:29.562Z,3.90
2018-09-26T10:11:58.041Z,4.17
2018-09-26T10:14:26.503Z,3.70
2018-09-26T10:16:54.918Z,3.10
2018-09-26T10:19:23.538Z,3.20
2018-09-26T10:21:52.516Z,3.00
2018-09-26T10:24:20.875Z,3.70
2018-09-26T10:26:49.258Z,3.17
2018-09-26T10:29:17.631Z,4.20
2018-09-26T10:31:46.002Z,3.50
2018-09-26T10:34:14.474Z,3.67
2018-09-26T10:36:42.859Z,3.30
2018-09-26T10:39:11.915Z,3.50
2018-09-26T10:41:40.255Z,3.60
2018-09-26T10:44:08.912Z,3.27
2018-09-26T10:46:37.442Z,3.83
2018-09-26T10:49:05.772Z,4.50
2018-09-26T10:51:34.161Z,3.47
2018-09-26T10:54:02.532Z,3.77
2018-09-26T10:56:31.913Z,4.30
2018-09-26T10:59:00.555Z,3.33
2018-09-26T11:01:28.930Z,2.97
2018-09-26T11:03:57.335Z,2.90
2018-09-26T11:06:25.792Z,2.67
2018-09-26T11:08:54.186Z,2.67
2018-09-26T11:11:22.577Z,3.00
2018-09-26T11:13:51.134Z,2.53
2018-09-26T11:16:20.112Z,3.50
2018-09-26T11:18:48.519Z,3.10
2018-09-26T11:21:16.822Z,3.30
2018-09-26T11:23:45.278Z,2.97
2018-09-26T11:26:13.819Z,3.70
2018-09-26T11:28:42.148Z,3.97
2018-09-26T11:31:10.525Z,3.20
2018-09-26T11:33:39.528Z,2.20
2018-09-26T11:36:07.870Z,2.90
2018-09-26T11:38:36.252Z,3.50
2018-09-26T11:41:04.658Z,2.70
2018-09-26T11:43:33.011Z,2.77
2018-09-26T11:46:01.421Z,3.10
2018-09-26T11:48:29.801Z,2.13
2018-09-26T11:50:58.337Z,2.10
2018-09-26T11:53:26.696Z,2.67
2018-09-26T11:55:55.819Z,2.30
2018-09-26T11:58:24.856Z,2.80
2018-09-26T12:00:53.759Z,2.63
2018-09-26T12:03:22.212Z,2.10
2018-09-26T12:05:50.742Z,2.40
2018-09-26T12:08:19.317Z,1.80
2018-09-26T12:10:47.583Z,2.90
2018-09-26T12:13:15.971Z,2.47
2018-09-26T12:15:44.506Z,2.70
2018-09-26T12:18:12.957Z,2.13
2018-09-26T12:20:41.411Z,2.60
2018-09-26T12:23:09.832Z,2.30
2018-09-26T12:25:38.213Z,2.47
2018-09-26T12:28:06.629Z,1.97
2018-09-26T12:30:35.129Z,2.63
2018-09-26T12:33:03.643Z,2.50
2018-09-26T12:35:32.010Z,2.30
2018-09-26T12:38:00.410Z,2.13
2018-09-26T12:40:28.833Z,2.33
2018-09-26T12:42:57.804Z,1.90
2018-09-26T12:45:26.470Z,2.57
2018-09-26T12:47:54.910Z,2.17
2018-09-26T12:50:23.199Z,1.90
2018-09-26T12:52:51.633Z,2.47
2018-09-26T12:55:20.554Z,2.90
2018-09-26T12:57:48.907Z,2.37
2018-09-26T13:00:17.388Z,1.90
2018-09-26T13:02:45.804Z,2.00
2018-09-26T13:05:14.080Z,2.20
2018-09-26T13:07:42.604Z,2.00
2018-09-26T13:10:11.066Z,2.33
2018-09-26T13:12:39.372Z,2.17
2018-09-26T13:15:07.766Z,2.37
2018-09-26T13:17:36.142Z,2.40
2018-09-26T13:20:05.232Z,2.37
2018-09-26T13:22:33.552Z,2.30
2018-09-26T13:25:01.995Z,2.23
2018-09-26T13:27:30.341Z,2.10
2018-09-26T13:29:58.750Z,2.47
2018-09-26T13:32:27.266Z,2.93
2018-09-26T13:34:55.553Z,2.20
2018-09-26T13:37:24.542Z,2.53
2018-09-26T13:39:52.959Z,2.63
2018-09-26T13:42:22.030Z,3.20
2018-09-26T13:44:50.363Z,2.63
2018-09-26T13:47:18.838Z,2.60
2018-09-26T13:49:47.343Z,3.67
2018-09-26T13:52:15.722Z,2.70
2018-09-26T13:54:44.189Z,2.60
2018-09-26T13:57:12.551Z,2.37
2018-09-26T13:59:41.015Z,2.50
2018-09-26T14:02:09.393Z,2.90
2018-09-26T14:04:37.864Z,2.40
2018-09-26T14:07:06.490Z,2.60
2018-09-26T14:09:34.940Z,2.13
2018-09-26T14:12:03.775Z,1.70
2018-09-26T14:14:32.127Z,3.00
2018-09-26T14:17:00.469Z,2.70
2018-09-26T14:19:29.495Z,2.97
2018-09-26T14:21:57.878Z,3.00
2018-09-26T14:24:26.262Z,2.70
2018-09-26T14:26:55.457Z,2.90
2018-09-26T14:29:24.505Z,3.17
2018-09-26T14:31:52.837Z,2.90
2018-09-26T14:34:21.197Z,2.60
2018-09-26T14:36:50.296Z,2.90
2018-09-26T14:39:18.727Z,2.63
2018-09-26T14:41:47.153Z,2.57
2018-09-26T14:44:15.628Z,3.00
2018-09-26T14:46:44.015Z,2.30
2018-09-26T14:49:12.496Z,2.70
2018-09-26T14:51:40.856Z,2.37
2018-09-26T14:54:09.308Z,2.47
2018-09-26T14:56:37.641Z,2.70
2018-09-26T14:59:06.227Z,2.37
2018-09-26T15:01:35.165Z,2.60
2018-09-26T15:04:04.245Z,2.20
2018-09-26T15:06:32.569Z,2.30
2018-09-26T15:09:01.007Z,2.30
2018-09-26T15:11:29.778Z,2.37
2018-09-26T15:13:58.722Z,1.60
2018-09-26T15:16:27.682Z,2.27
2018-09-26T15:18:56.244Z,1.90
2018-09-26T15:21:24.544Z,1.70
2018-09-26T15:23:52.928Z,1.90
2018-09-26T15:26:21.393Z,2.60
2018-09-26T15:28:49.863Z,2.10
2018-09-26T15:31:18.563Z,2.27
2018-09-26T15:33:46.954Z,2.10
2018-09-26T15:36:15.434Z,2.30
2018-09-26T15:38:43.815Z,2.03
2018-09-26T15:41:12.391Z,1.97
2018-09-26T15:43:41.274Z,2.00
2018-09-26T15:46:09.905Z,1.67
2018-09-26T15:48:38.312Z,1.80
2018-09-26T15:51:07.233Z,1.90
2018-09-26T15:53:36.267Z,1.40
2018-09-26T15:56:04.675Z,1.90
2018-09-26T15:58:33.592Z,1.80
2018-09-26T16:01:02.718Z,1.93
2018-09-26T16:03:31.041Z,2.03
2018-09-26T16:05:59.483Z,2.43
2018-09-26T16:08:27.949Z,2.07
2018-09-26T16:10:56.303Z,2.10
2018-09-26T16:13:24.664Z,2.03
2018-09-26T16:15:53.590Z,2.33
2018-09-26T16:18:22.056Z,2.57
2018-09-26T16:20:50.435Z,1.80
2018-09-26T16:23:18.885Z,1.57
2018-09-26T16:25:47.270Z,2.40
2018-09-26T16:28:15.666Z,2.13
2018-09-26T16:30:44.100Z,2.10
2018-09-26T16:33:12.514Z,1.77
2018-09-26T16:35:40.932Z,2.13
2018-09-26T16:38:09.319Z,2.20
2018-09-26T16:40:37.712Z,2.43
2018-09-26T16:43:06.378Z,2.20
2018-09-26T16:45:34.801Z,3.20
2018-09-26T16:48:03.175Z,3.03
2018-09-26T16:50:31.510Z,2.30
2018-09-26T16:52:59.943Z,2.00
2018-09-26T16:55:28.533Z,3.00
2018-09-26T16:57:57.288Z,1.97
2018-09-26T17:00:25.777Z,1.77
2018-09-26T17:02:54.180Z,2.10
2018-09-26T17:05:22.690Z,1.80
2018-09-26T17:07:51.280Z,2.20
2018-09-26T17:10:19.692Z,1.87
2018-09-26T17:12:48.143Z,2.20
2018-09-26T17:15:16.490Z,2.73
2018-09-26T17:17:44.889Z,2.60
2018-09-26T17:20:13.276Z,2.40
2018-09-26T17:22:41.698Z,2.67
2018-09-26T17:25:10.088Z,2.90
2018-09-26T17:27:38.694Z,2.63
2018-09-26T17:30:07.090Z,2.40
2018-09-26T17:32:36.088Z,3.80
2018-09-26T17:35:04.581Z,3.80
2018-09-26T17:37:33.687Z,3.20
2018-09-26T17:40:02.077Z,2.70
2018-09-26T17:42:30.453Z,3.20
2018-09-26T17:44:59.611Z,2.70
2018-09-26T17:47:27.953Z,2.80
2018-09-26T17:49:56.511Z,3.40
2018-09-26T17:52:25.592Z,2.83
2018-09-26T17:54:53.929Z,2.87
2018-09-26T17:57:23.156Z,2.93
2018-09-26T17:59:51.613Z,2.93
2018-09-26T18:02:19.983Z,3.10
2018-09-26T18:04:48.367Z,4.03
2018-09-26T18:07:17.307Z,3.70
2018-09-26T18:09:45.688Z,3.33
2018-09-26T18:12:14.115Z,3.07
2018-09-26T18:14:43.373Z,2.90
2018-09-26T18:17:11.791Z,3.00
2018-09-26T18:19:40.286Z,3.00
2018-09-26T18:22:08.810Z,3.30
2018-09-26T18:24:37.206Z,3.77
2018-09-26T18:27:05.759Z,3.60
2018-09-26T18:29:34.274Z,3.67
2018-09-26T18:32:02.689Z,3.47
2018-09-26T18:34:31.214Z,3.97
2018-09-26T18:36:59.785Z,3.37
2018-09-26T18:39:28.245Z,2.77
2018-09-26T18:41:56.644Z,3.80
2018-09-26T18:44:25.014Z,4.23
2018-09-26T18:46:53.585Z,3.80
2018-09-26T18:49:22.091Z,3.33
2018-09-26T18:51:50.647Z,3.57
2018-09-26T18:54:19.104Z,3.67
2018-09-26T18:56:47.547Z,3.77
2018-09-26T18:59:16.055Z,4.60
2018-09-26T19:01:44.419Z,3.63
2018-09-26T19:04:13.169Z,3.07
2018-09-26T19:06:42.448Z,3.50
2018-09-26T19:09:11.466Z,4.43
2018-09-26T19:11:39.925Z,3.60
2018-09-26T19:14:08.427Z,3.50
2018-09-26T19:16:37.069Z,3.40
2018-09-26T19:19:05.724Z,3.40
2018-09-26T19:21:34.649Z,4.20
2018-09-26T19:24:02.982Z,4.10
2018-09-26T19:26:31.379Z,3.67
2018-09-26T19:28:59.883Z,3.97
2018-09-26T19:31:28.285Z,3.50
2018-09-26T19:33:56.727Z,3.50
2018-09-26T19:36:26.001Z,3.80
2018-09-26T19:38:54.485Z,3.27
2018-09-26T19:41:22.829Z,3.87
2018-09-26T19:43:51.368Z,3.23
2018-09-26T19:46:19.728Z,3.50
2018-09-26T19:48:48.257Z,3.97
2018-09-26T19:51:16.694Z,3.37
2018-09-26T19:53:45.123Z,3.23
2018-09-26T19:56:13.705Z,4.40
2018-09-26T19:58:42.280Z,3.30
2018-09-26T20:01:10.683Z,3.47
2018-09-26T20:03:39.059Z,4.40
2018-09-26T20:06:07.475Z,3.90
2018-09-26T20:08:35.862Z,3.70
2018-09-26T20:11:04.409Z,4.07
2018-09-26T20:13:32.811Z,3.80
2018-09-26T20:16:01.204Z,4.97
2018-09-26T20:18:30.386Z,4.70
2018-09-26T20:20:58.814Z,5.03
2018-09-26T20:23:27.401Z,5.20
2018-09-26T20:25:55.630Z,5.10
2018-09-26T20:28:24.044Z,4.73
2018-09-26T20:30:52.513Z,5.20
2018-09-26T20:33:21.679Z,5.30
2018-09-26T20:35:50.138Z,5.07
2018-09-26T20:38:18.575Z,4.87
2018-09-26T20:40:46.993Z,6.70
2018-09-26T20:43:15.549Z,4.90
2018-09-26T20:45:43.959Z,5.40
2018-09-26T20:48:12.481Z,4.90
2018-09-26T20:50:41.031Z,6.40
2018-09-26T20:53:09.384Z,4.77
2018-09-26T20:55:37.783Z,4.63
2018-09-26T20:58:06.336Z,5.17
2018-09-26T21:00:34.786Z,5.10
2018-09-26T21:03:04.363Z,4.77
2018-09-26T21:05:32.863Z,4.90
2018-09-26T21:08:02.014Z,5.10
2018-09-26T21:10:30.457Z,5.70
2018-09-26T21:12:58.930Z,5.20
2018-09-26T21:15:27.394Z,4.73
2018-09-26T21:17:55.809Z,6.23
2018-09-26T21:20:24.845Z,4.73
2018-09-26T21:22:53.313Z,4.70
2018-09-26T21:25:21.716Z,4.03
2018-09-26T21:27:50.085Z,6.00
2018-09-26T21:30:18.635Z,6.40
2018-09-26T21:32:47.741Z,4.70
2018-09-26T21:35:16.255Z,4.90
2018-09-26T21:37:44.762Z,5.70
2018-09-26T21:40:13.240Z,4.30
2018-09-26T21:42:41.636Z,4.80
2018-09-26T21:45:10.104Z,4.97
2018-09-26T21:47:38.629Z,5.43
2018-09-26T21:50:07.500Z,5.47
2018-09-26T21:52:36.033Z,5.17
2018-09-26T21:55:04.551Z,4.83
2018-09-26T21:57:32.971Z,5.73
2018-09-26T22:00:01.448Z,4.70
2018-09-26T22:02:30.008Z,4.93
2018-09-26T22:04:59.300Z,5.00
2018-09-26T22:07:27.936Z,5.83
2018-09-26T22:09:56.513Z,5.43
2018-09-26T22:12:25.153Z,6.40
2018-09-26T22:14:54.274Z,5.90
2018-09-26T22:17:23.388Z,6.80
2018-09-26T22:19:51.970Z,5.50
2018-09-26T22:22:20.638Z,7.20
2018-09-26T22:24:49.150Z,7.27
2018-09-26T22:27:17.735Z,6.40
2018-09-26T22:29:46.292Z,6.23
2018-09-26T22:32:15.037Z,6.57
2018-09-26T22:34:43.653Z,6.07
2018-09-26T22:37:12.462Z,7.60
2018-09-26T22:39:41.240Z,6.43
2018-09-26T22:42:10.846Z,5.60
2018-09-26T22:44:39.704Z,6.43
2018-09-26T22:47:08.283Z,5.93
2018-09-26T22:49:37.083Z,6.73
2018-09-26T22:52:06.053Z,5.10
2018-09-26T22:54:35.104Z,6.80
2018-09-26T22:57:05.655Z,5.60
2018-09-26T22:59:34.521Z,7.30
2018-09-26T23:02:03.640Z,5.77
2018-09-26T23:04:32.137Z,6.20
2018-09-26T23:07:00.587Z,6.17
2018-09-26T23:09:29.088Z,5.80
2018-09-26T23:11:57.548Z,6.62
2018-09-26T23:14:26.081Z,5.73
2018-09-26T23:16:54.640Z,5.93
2018-09-26T23:19:23.202Z,5.60
2018-09-26T23:21:51.744Z,6.30
2018-09-26T23:24:20.207Z,5.27
2018-09-26T23:26:48.865Z,7.57
2018-09-26T23:29:17.400Z,6.17
2018-09-26T23:31:46.614Z,6.23
2018-09-26T23:34:15.824Z,6.55
2018-09-26T23:36:44.303Z,6.30
2018-09-26T23:39:12.811Z,6.42
2018-09-26T23:41:41.350Z,6.10
2018-09-26T23:44:10.198Z,7.03
2018-09-26T23:46:38.763Z,6.20
2018-09-26T23:49:07.279Z,6.93
2018-09-26T23:51:35.825Z,6.60
2018-09-26T23:54:04.516Z,6.67
2018-09-26T23:56:32.980Z,6.07
2018-09-26T23:59:01.508Z,6.62
